Terminal Aerodrome Forecast
Issued by NWS New Orleans/Baton Rouge, LA

Home | Current Version | Previous Version | Text Only | Print | Product List | Glossary On
Versions: 1 2 3 4 5 6 7 8 9 10 11 12 13 14 15 16
000
FTUS44 KLIX 260535
TAFNEW
TAF
KNEW 260535Z 2606/2706 05015KT P6SM SCT035
     FM261400 06009KT P6SM SCT140
     FM262300 09006KT P6SM BKN080
     FM270200 12004KT P6SM SCT110=

USA.gov is the U.S. government's official web portal to all federal, state and local government web resources and services.